sensor_id;sensor_type;location;lat;lon;timestamp;P1;durP1;ratioP1;P2;durP2;ratioP2
40284;SDS011;25997;50.214;19.354;2023-04-29T00:00:14;27.73;;;18.92;;
40284;SDS011;25997;50.214;19.354;2023-04-29T00:03:17;31.92;;;21.08;;
40284;SDS011;25997;50.214;19.354;2023-04-29T00:06:20;36.88;;;25.95;;
40284;SDS011;25997;50.214;19.354;2023-04-29T00:09:24;39.30;;;29.35;;
40284;SDS011;25997;50.214;19.354;2023-04-29T00:12:26;37.10;;;27.83;;
40284;SDS011;25997;50.214;19.354;2023-04-29T00:15:31;34.35;;;24.35;;
40284;SDS011;25997;50.214;19.354;2023-04-29T00:18:33;56.55;;;39.03;;
40284;SDS011;25997;50.214;19.354;2023-04-29T00:21:37;45.67;;;34.05;;
40284;SDS011;25997;50.214;19.354;2023-04-29T00:24:41;61.80;;;42.28;;
40284;SDS011;25997;50.214;19.354;2023-04-29T00:27:43;53.42;;;39.95;;
40284;SDS011;25997;50.214;19.354;2023-04-29T00:30:45;40.42;;;29.38;;
40284;SDS011;25997;50.214;19.354;2023-04-29T00:33:48;21.83;;;15.85;;
40284;SDS011;25997;50.214;19.354;2023-04-29T00:36:50;18.77;;;15.90;;
40284;SDS011;25997;50.214;19.354;2023-04-29T00:39:54;22.67;;;16.15;;
40284;SDS011;25997;50.214;19.354;2023-04-29T00:42:57;38.95;;;28.77;;
40284;SDS011;25997;50.214;19.354;2023-04-29T00:45:59;50.53;;;36.00;;
40284;SDS011;25997;50.214;19.354;2023-04-29T00:49:02;53.03;;;38.97;;
40284;SDS011;25997;50.214;19.354;2023-04-29T00:52:05;51.22;;;36.17;;
40284;SDS011;25997;50.214;19.354;2023-04-29T00:55:10;52.42;;;35.35;;
40284;SDS011;25997;50.214;19.354;2023-04-29T00:58:13;28.10;;;20.75;;
40284;SDS011;25997;50.214;19.354;2023-04-29T01:01:17;17.48;;;13.55;;
40284;SDS011;25997;50.214;19.354;2023-04-29T01:04:21;20.83;;;12.90;;
40284;SDS011;25997;50.214;19.354;2023-04-29T01:07:26;18.48;;;11.13;;
40284;SDS011;25997;50.214;19.354;2023-04-29T01:10:38;17.33;;;12.00;;
40284;SDS011;25997;50.214;19.354;2023-04-29T01:13:48;15.73;;;11.43;;
40284;SDS011;25997;50.214;19.354;2023-04-29T01:16:54;14.25;;;11.30;;
40284;SDS011;25997;50.214;19.354;2023-04-29T01:20:08;18.63;;;11.27;;
40284;SDS011;25997;50.214;19.354;2023-04-29T01:23:11;14.85;;;11.73;;
40284;SDS011;25997;50.214;19.354;2023-04-29T01:26:16;16.88;;;13.02;;
40284;SDS011;25997;50.214;19.354;2023-04-29T01:29:34;20.23;;;16.07;;
40284;SDS011;25997;50.214;19.354;2023-04-29T01:32:51;17.60;;;13.98;;
40284;SDS011;25997;50.214;19.354;2023-04-29T01:36:04;28.92;;;17.50;;
40284;SDS011;25997;50.214;19.354;2023-04-29T01:39:17;61.60;;;39.42;;
40284;SDS011;25997;50.214;19.354;2023-04-29T01:42:42;128.70;;;64.88;;
40284;SDS011;25997;50.214;19.354;2023-04-29T01:45:51;50.78;;;30.33;;
40284;SDS011;25997;50.214;19.354;2023-04-29T01:48:56;21.52;;;16.00;;
40284;SDS011;25997;50.214;19.354;2023-04-29T01:51:58;21.80;;;15.90;;
40284;SDS011;25997;50.214;19.354;2023-04-29T01:55:01;27.75;;;19.05;;
40284;SDS011;25997;50.214;19.354;2023-04-29T01:58:15;88.38;;;48.85;;
40284;SDS011;25997;50.214;19.354;2023-04-29T02:01:24;41.05;;;31.83;;
40284;SDS011;25997;50.214;19.354;2023-04-29T02:04:27;34.03;;;30.23;;
40284;SDS011;25997;50.214;19.354;2023-04-29T02:07:33;150.43;;;62.28;;
40284;SDS011;25997;50.214;19.354;2023-04-29T02:10:36;161.15;;;66.00;;
40284;SDS011;25997;50.214;19.354;2023-04-29T02:13:52;62.60;;;35.25;;
40284;SDS011;25997;50.214;19.354;2023-04-29T02:16:56;34.97;;;23.70;;
40284;SDS011;25997;50.214;19.354;2023-04-29T02:19:59;72.55;;;41.88;;
40284;SDS011;25997;50.214;19.354;2023-04-29T02:23:03;54.22;;;34.80;;
40284;SDS011;25997;50.214;19.354;2023-04-29T02:26:05;45.58;;;30.90;;
40284;SDS011;25997;50.214;19.354;2023-04-29T02:29:10;38.28;;;22.02;;
40284;SDS011;25997;50.214;19.354;2023-04-29T02:32:12;22.33;;;15.45;;
40284;SDS011;25997;50.214;19.354;2023-04-29T02:35:15;19.13;;;13.75;;
40284;SDS011;25997;50.214;19.354;2023-04-29T02:38:18;19.50;;;12.43;;
40284;SDS011;25997;50.214;19.354;2023-04-29T02:41:20;14.38;;;11.73;;
40284;SDS011;25997;50.214;19.354;2023-04-29T02:44:24;18.90;;;12.15;;
40284;SDS011;25997;50.214;19.354;2023-04-29T02:47:27;14.13;;;10.75;;
40284;SDS011;25997;50.214;19.354;2023-04-29T02:50:30;15.93;;;10.57;;
40284;SDS011;25997;50.214;19.354;2023-04-29T02:53:33;14.88;;;9.98;;
40284;SDS011;25997;50.214;19.354;2023-04-29T02:56:35;16.75;;;11.80;;
40284;SDS011;25997;50.214;19.354;2023-04-29T02:59:39;14.35;;;11.38;;
40284;SDS011;25997;50.214;19.354;2023-04-29T03:02:41;13.90;;;12.00;;
40284;SDS011;25997;50.214;19.354;2023-04-29T03:05:44;18.48;;;11.60;;
40284;SDS011;25997;50.214;19.354;2023-04-29T03:08:46;17.13;;;12.15;;
40284;SDS011;25997;50.214;19.354;2023-04-29T03:11:49;13.25;;;11.35;;
40284;SDS011;25997;50.214;19.354;2023-04-29T03:14:54;17.10;;;10.38;;
40284;SDS011;25997;50.214;19.354;2023-04-29T03:17:57;14.68;;;11.10;;
40284;SDS011;25997;50.214;19.354;2023-04-29T03:21:01;14.32;;;11.70;;
40284;SDS011;25997;50.214;19.354;2023-04-29T03:24:04;16.08;;;11.55;;
40284;SDS011;25997;50.214;19.354;2023-04-29T03:27:08;14.20;;;10.38;;
40284;SDS011;25997;50.214;19.354;2023-04-29T03:30:13;18.80;;;10.43;;
40284;SDS011;25997;50.214;19.354;2023-04-29T03:33:21;14.32;;;9.20;;
40284;SDS011;25997;50.214;19.354;2023-04-29T03:36:24;14.55;;;10.00;;
40284;SDS011;25997;50.214;19.354;2023-04-29T03:39:40;15.38;;;10.27;;
40284;SDS011;25997;50.214;19.354;2023-04-29T03:42:42;14.50;;;9.55;;
40284;SDS011;25997;50.214;19.354;2023-04-29T03:45:47;12.32;;;10.15;;
40284;SDS011;25997;50.214;19.354;2023-04-29T03:48:52;13.77;;;9.38;;
40284;SDS011;25997;50.214;19.354;2023-04-29T03:51:56;13.77;;;10.10;;
40284;SDS011;25997;50.214;19.354;2023-04-29T03:54:59;13.68;;;10.25;;
40284;SDS011;25997;50.214;19.354;2023-04-29T03:58:01;12.70;;;10.00;;
40284;SDS011;25997;50.214;19.354;2023-04-29T04:01:07;13.60;;;11.18;;
40284;SDS011;25997;50.214;19.354;2023-04-29T04:04:16;16.33;;;11.07;;
40284;SDS011;25997;50.214;19.354;2023-04-29T04:07:22;21.98;;;13.82;;
40284;SDS011;25997;50.214;19.354;2023-04-29T04:10:56;29.27;;;19.55;;
40284;SDS011;25997;50.214;19.354;2023-04-29T04:14:26;38.40;;;30.77;;
40284;SDS011;25997;50.214;19.354;2023-04-29T04:17:30;16.17;;;14.57;;
40284;SDS011;25997;50.214;19.354;2023-04-29T04:20:35;22.50;;;20.20;;
40284;SDS011;25997;50.214;19.354;2023-04-29T04:23:38;38.58;;;32.22;;
40284;SDS011;25997;50.214;19.354;2023-04-29T04:26:43;37.65;;;32.55;;
40284;SDS011;25997;50.214;19.354;2023-04-29T04:29:52;27.38;;;23.77;;
40284;SDS011;25997;50.214;19.354;2023-04-29T04:33:01;20.55;;;15.10;;
40284;SDS011;25997;50.214;19.354;2023-04-29T04:36:05;19.35;;;15.00;;
40284;SDS011;25997;50.214;19.354;2023-04-29T04:39:08;15.95;;;12.48;;
40284;SDS011;25997;50.214;19.354;2023-04-29T04:42:10;12.30;;;10.50;;
40284;SDS011;25997;50.214;19.354;2023-04-29T04:45:13;15.75;;;10.27;;
40284;SDS011;25997;50.214;19.354;2023-04-29T04:48:24;11.15;;;9.43;;
40284;SDS011;25997;50.214;19.354;2023-04-29T04:51:28;12.77;;;10.10;;
40284;SDS011;25997;50.214;19.354;2023-04-29T04:54:30;19.40;;;13.13;;
40284;SDS011;25997;50.214;19.354;2023-04-29T04:57:45;13.27;;;10.45;;
40284;SDS011;25997;50.214;19.354;2023-04-29T05:00:48;14.80;;;11.23;;
40284;SDS011;25997;50.214;19.354;2023-04-29T05:03:53;29.77;;;21.80;;
40284;SDS011;25997;50.214;19.354;2023-04-29T05:06:57;16.25;;;12.43;;
40284;SDS011;25997;50.214;19.354;2023-04-29T05:10:05;17.60;;;12.30;;
40284;SDS011;25997;50.214;19.354;2023-04-29T05:16:17;13.15;;;10.68;;
40284;SDS011;25997;50.214;19.354;2023-04-29T05:19:23;14.73;;;10.70;;
40284;SDS011;25997;50.214;19.354;2023-04-29T05:22:26;13.20;;;8.90;;
40284;SDS011;25997;50.214;19.354;2023-04-29T05:25:28;11.15;;;10.02;;
40284;SDS011;25997;50.214;19.354;2023-04-29T05:28:31;17.70;;;13.77;;
40284;SDS011;25997;50.214;19.354;2023-04-29T05:31:34;12.65;;;10.63;;
40284;SDS011;25997;50.214;19.354;2023-04-29T05:34:39;16.25;;;12.57;;
40284;SDS011;25997;50.214;19.354;2023-04-29T05:37:44;14.82;;;12.10;;
40284;SDS011;25997;50.214;19.354;2023-04-29T05:41:10;10.52;;;8.48;;
40284;SDS011;25997;50.214;19.354;2023-04-29T05:44:32;11.73;;;8.82;;
40284;SDS011;25997;50.214;19.354;2023-04-29T05:47:34;12.20;;;10.15;;
40284;SDS011;25997;50.214;19.354;2023-04-29T05:50:38;11.48;;;10.27;;
40284;SDS011;25997;50.214;19.354;2023-04-29T05:53:41;12.85;;;10.45;;
40284;SDS011;25997;50.214;19.354;2023-04-29T05:56:43;11.68;;;9.35;;
40284;SDS011;25997;50.214;19.354;2023-04-29T05:59:46;10.02;;;7.75;;
40284;SDS011;25997;50.214;19.354;2023-04-29T06:02:48;13.50;;;9.55;;
40284;SDS011;25997;50.214;19.354;2023-04-29T06:05:53;12.63;;;10.23;;
40284;SDS011;25997;50.214;19.354;2023-04-29T06:09:14;16.75;;;10.02;;
40284;SDS011;25997;50.214;19.354;2023-04-29T06:12:18;14.88;;;11.23;;
40284;SDS011;25997;50.214;19.354;2023-04-29T06:15:21;12.13;;;9.75;;
40284;SDS011;25997;50.214;19.354;2023-04-29T06:18:25;14.93;;;9.30;;
40284;SDS011;25997;50.214;19.354;2023-04-29T06:21:29;12.20;;;8.63;;
40284;SDS011;25997;50.214;19.354;2023-04-29T06:24:34;10.68;;;9.60;;
40284;SDS011;25997;50.214;19.354;2023-04-29T06:27:37;12.35;;;10.50;;
40284;SDS011;25997;50.214;19.354;2023-04-29T06:30:39;11.63;;;10.35;;
40284;SDS011;25997;50.214;19.354;2023-04-29T06:33:42;12.27;;;9.95;;
40284;SDS011;25997;50.214;19.354;2023-04-29T06:36:48;14.98;;;11.85;;
40284;SDS011;25997;50.214;19.354;2023-04-29T06:40:06;12.77;;;11.48;;
40284;SDS011;25997;50.214;19.354;2023-04-29T06:43:17;13.50;;;12.15;;
40284;SDS011;25997;50.214;19.354;2023-04-29T06:46:45;14.00;;;12.48;;
40284;SDS011;25997;50.214;19.354;2023-04-29T06:50:13;12.75;;;11.35;;
40284;SDS011;25997;50.214;19.354;2023-04-29T06:53:19;14.00;;;11.15;;
40284;SDS011;25997;50.214;19.354;2023-04-29T06:56:22;14.45;;;11.82;;
40284;SDS011;25997;50.214;19.354;2023-04-29T06:59:25;12.68;;;11.18;;
40284;SDS011;25997;50.214;19.354;2023-04-29T07:02:27;14.40;;;12.25;;
40284;SDS011;25997;50.214;19.354;2023-04-29T07:05:30;15.35;;;13.75;;
40284;SDS011;25997;50.214;19.354;2023-04-29T07:08:33;13.85;;;10.32;;
40284;SDS011;25997;50.214;19.354;2023-04-29T07:11:36;16.67;;;14.88;;
40284;SDS011;25997;50.214;19.354;2023-04-29T07:14:38;12.77;;;11.45;;
40284;SDS011;25997;50.214;19.354;2023-04-29T07:17:42;29.02;;;25.90;;
40284;SDS011;25997;50.214;19.354;2023-04-29T07:20:44;21.15;;;15.98;;
40284;SDS011;25997;50.214;19.354;2023-04-29T07:23:49;80.80;;;62.63;;
40284;SDS011;25997;50.214;19.354;2023-04-29T07:26:52;55.97;;;45.28;;
40284;SDS011;25997;50.214;19.354;2023-04-29T07:29:54;24.02;;;21.55;;
40284;SDS011;25997;50.214;19.354;2023-04-29T07:32:57;27.83;;;25.17;;
40284;SDS011;25997;50.214;19.354;2023-04-29T07:36:00;44.15;;;39.30;;
40284;SDS011;25997;50.214;19.354;2023-04-29T07:39:04;83.82;;;68.82;;
40284;SDS011;25997;50.214;19.354;2023-04-29T07:42:07;31.08;;;26.50;;
40284;SDS011;25997;50.214;19.354;2023-04-29T07:45:10;36.85;;;29.52;;
40284;SDS011;25997;50.214;19.354;2023-04-29T07:48:13;22.10;;;19.80;;
40284;SDS011;25997;50.214;19.354;2023-04-29T07:51:16;13.43;;;11.57;;
40284;SDS011;25997;50.214;19.354;2023-04-29T07:54:20;14.43;;;12.43;;
40284;SDS011;25997;50.214;19.354;2023-04-29T07:57:23;14.77;;;10.95;;
40284;SDS011;25997;50.214;19.354;2023-04-29T08:00:25;13.48;;;11.85;;
40284;SDS011;25997;50.214;19.354;2023-04-29T08:03:28;24.02;;;18.50;;
40284;SDS011;25997;50.214;19.354;2023-04-29T08:06:31;14.75;;;13.25;;
40284;SDS011;25997;50.214;19.354;2023-04-29T08:09:35;12.68;;;11.35;;
40284;SDS011;25997;50.214;19.354;2023-04-29T08:12:38;12.80;;;10.82;;
40284;SDS011;25997;50.214;19.354;2023-04-29T08:15:41;15.85;;;14.07;;
40284;SDS011;25997;50.214;19.354;2023-04-29T08:18:44;15.52;;;12.82;;
40284;SDS011;25997;50.214;19.354;2023-04-29T08:21:46;12.93;;;11.65;;
40284;SDS011;25997;50.214;19.354;2023-04-29T08:24:50;14.10;;;12.60;;
40284;SDS011;25997;50.214;19.354;2023-04-29T08:27:52;14.27;;;12.23;;
40284;SDS011;25997;50.214;19.354;2023-04-29T08:30:55;15.68;;;13.70;;
40284;SDS011;25997;50.214;19.354;2023-04-29T08:33:58;14.02;;;12.30;;
40284;SDS011;25997;50.214;19.354;2023-04-29T08:37:00;13.20;;;11.18;;
40284;SDS011;25997;50.214;19.354;2023-04-29T08:40:06;13.40;;;10.98;;
40284;SDS011;25997;50.214;19.354;2023-04-29T08:43:09;13.57;;;11.18;;
40284;SDS011;25997;50.214;19.354;2023-04-29T08:46:14;14.27;;;9.63;;
40284;SDS011;25997;50.214;19.354;2023-04-29T08:49:17;12.38;;;10.18;;
40284;SDS011;25997;50.214;19.354;2023-04-29T08:52:20;13.32;;;9.85;;
40284;SDS011;25997;50.214;19.354;2023-04-29T08:55:24;13.70;;;11.02;;
40284;SDS011;25997;50.214;19.354;2023-04-29T08:58:27;14.70;;;11.30;;
40284;SDS011;25997;50.214;19.354;2023-04-29T09:01:30;12.32;;;10.10;;
40284;SDS011;25997;50.214;19.354;2023-04-29T09:04:39;13.65;;;11.35;;
40284;SDS011;25997;50.214;19.354;2023-04-29T09:07:48;13.07;;;9.00;;
40284;SDS011;25997;50.214;19.354;2023-04-29T09:10:53;11.02;;;9.90;;
40284;SDS011;25997;50.214;19.354;2023-04-29T09:13:57;11.88;;;10.13;;
40284;SDS011;25997;50.214;19.354;2023-04-29T09:17:01;12.75;;;10.13;;
40284;SDS011;25997;50.214;19.354;2023-04-29T09:20:08;10.93;;;9.40;;
40284;SDS011;25997;50.214;19.354;2023-04-29T09:23:35;9.45;;;8.23;;
40284;SDS011;25997;50.214;19.354;2023-04-29T09:26:41;10.50;;;7.63;;
40284;SDS011;25997;50.214;19.354;2023-04-29T09:29:47;8.77;;;7.30;;
40284;SDS011;25997;50.214;19.354;2023-04-29T09:33:05;9.15;;;7.50;;
40284;SDS011;25997;50.214;19.354;2023-04-29T09:36:09;9.55;;;7.10;;
40284;SDS011;25997;50.214;19.354;2023-04-29T09:39:12;8.05;;;6.88;;
40284;SDS011;25997;50.214;19.354;2023-04-29T09:42:17;7.97;;;7.18;;
40284;SDS011;25997;50.214;19.354;2023-04-29T09:45:31;11.40;;;9.02;;
40284;SDS011;25997;50.214;19.354;2023-04-29T09:48:34;8.10;;;6.93;;
40284;SDS011;25997;50.214;19.354;2023-04-29T09:51:40;9.10;;;6.90;;
40284;SDS011;25997;50.214;19.354;2023-04-29T09:54:53;8.13;;;7.10;;
40284;SDS011;25997;50.214;19.354;2023-04-29T09:58:07;10.98;;;7.72;;
40284;SDS011;25997;50.214;19.354;2023-04-29T10:01:28;9.02;;;6.30;;
40284;SDS011;25997;50.214;19.354;2023-04-29T10:04:31;10.68;;;8.02;;
40284;SDS011;25997;50.214;19.354;2023-04-29T10:07:37;11.32;;;9.35;;
40284;SDS011;25997;50.214;19.354;2023-04-29T10:10:40;8.32;;;7.40;;
40284;SDS011;25997;50.214;19.354;2023-04-29T10:13:45;12.30;;;8.68;;
40284;SDS011;25997;50.214;19.354;2023-04-29T10:16:51;9.27;;;7.93;;
40284;SDS011;25997;50.214;19.354;2023-04-29T10:20:03;11.18;;;8.60;;
40284;SDS011;25997;50.214;19.354;2023-04-29T10:23:07;10.35;;;9.35;;
40284;SDS011;25997;50.214;19.354;2023-04-29T10:26:14;8.43;;;7.53;;
40284;SDS011;25997;50.214;19.354;2023-04-29T10:29:20;11.38;;;8.45;;
40284;SDS011;25997;50.214;19.354;2023-04-29T10:32:24;10.38;;;9.38;;
40284;SDS011;25997;50.214;19.354;2023-04-29T10:35:29;12.20;;;9.13;;
40284;SDS011;25997;50.214;19.354;2023-04-29T10:38:33;12.15;;;9.68;;
40284;SDS011;25997;50.214;19.354;2023-04-29T10:41:42;10.20;;;8.27;;
40284;SDS011;25997;50.214;19.354;2023-04-29T10:48:24;10.43;;;9.43;;
40284;SDS011;25997;50.214;19.354;2023-04-29T10:51:28;15.48;;;10.88;;
40284;SDS011;25997;50.214;19.354;2023-04-29T10:54:32;14.18;;;11.27;;
40284;SDS011;25997;50.214;19.354;2023-04-29T10:57:34;15.38;;;10.70;;
40284;SDS011;25997;50.214;19.354;2023-04-29T11:00:38;12.48;;;10.55;;
40284;SDS011;25997;50.214;19.354;2023-04-29T11:03:44;13.93;;;10.30;;
40284;SDS011;25997;50.214;19.354;2023-04-29T11:06:55;15.35;;;13.85;;
40284;SDS011;25997;50.214;19.354;2023-04-29T11:09:58;17.55;;;15.07;;
40284;SDS011;25997;50.214;19.354;2023-04-29T11:13:21;15.65;;;12.63;;
40284;SDS011;25997;50.214;19.354;2023-04-29T11:16:26;13.20;;;11.40;;
40284;SDS011;25997;50.214;19.354;2023-04-29T11:19:30;9.95;;;8.90;;
40284;SDS011;25997;50.214;19.354;2023-04-29T11:22:33;12.90;;;10.25;;
40284;SDS011;25997;50.214;19.354;2023-04-29T11:25:35;13.73;;;11.00;;
40284;SDS011;25997;50.214;19.354;2023-04-29T11:28:40;17.52;;;11.82;;
40284;SDS011;25997;50.214;19.354;2023-04-29T11:31:45;15.00;;;11.00;;
40284;SDS011;25997;50.214;19.354;2023-04-29T11:34:48;12.20;;;10.98;;
40284;SDS011;25997;50.214;19.354;2023-04-29T11:37:50;13.82;;;10.18;;
40284;SDS011;25997;50.214;19.354;2023-04-29T11:40:53;13.43;;;10.68;;
40284;SDS011;25997;50.214;19.354;2023-04-29T11:43:57;11.38;;;10.25;;
40284;SDS011;25997;50.214;19.354;2023-04-29T11:47:02;13.07;;;10.65;;
40284;SDS011;25997;50.214;19.354;2023-04-29T11:50:05;18.17;;;14.50;;
40284;SDS011;25997;50.214;19.354;2023-04-29T11:53:09;12.30;;;10.77;;
40284;SDS011;25997;50.214;19.354;2023-04-29T11:56:12;10.57;;;9.30;;
40284;SDS011;25997;50.214;19.354;2023-04-29T11:59:14;16.38;;;11.35;;
40284;SDS011;25997;50.214;19.354;2023-04-29T12:02:21;15.90;;;14.13;;
40284;SDS011;25997;50.214;19.354;2023-04-29T12:05:24;79.18;;;58.40;;
40284;SDS011;25997;50.214;19.354;2023-04-29T12:08:27;147.00;;;126.75;;
40284;SDS011;25997;50.214;19.354;2023-04-29T12:11:30;17.63;;;15.60;;
40284;SDS011;25997;50.214;19.354;2023-04-29T12:14:32;41.05;;;36.25;;
40284;SDS011;25997;50.214;19.354;2023-04-29T12:17:36;41.53;;;37.20;;
40284;SDS011;25997;50.214;19.354;2023-04-29T12:20:39;50.42;;;45.47;;
40284;SDS011;25997;50.214;19.354;2023-04-29T12:23:42;30.88;;;27.92;;
40284;SDS011;25997;50.214;19.354;2023-04-29T12:26:48;12.20;;;10.43;;
40284;SDS011;25997;50.214;19.354;2023-04-29T12:29:50;23.75;;;21.08;;
40284;SDS011;25997;50.214;19.354;2023-04-29T12:32:55;12.88;;;10.63;;
40284;SDS011;25997;50.214;19.354;2023-04-29T12:35:57;16.55;;;13.25;;
40284;SDS011;25997;50.214;19.354;2023-04-29T12:39:00;17.30;;;13.45;;
40284;SDS011;25997;50.214;19.354;2023-04-29T12:42:02;27.48;;;17.45;;
40284;SDS011;25997;50.214;19.354;2023-04-29T12:45:05;18.85;;;13.05;;
40284;SDS011;25997;50.214;19.354;2023-04-29T12:48:09;12.07;;;10.77;;
40284;SDS011;25997;50.214;19.354;2023-04-29T12:51:13;15.48;;;12.40;;
40284;SDS011;25997;50.214;19.354;2023-04-29T12:54:15;13.27;;;11.88;;
40284;SDS011;25997;50.214;19.354;2023-04-29T12:57:17;15.45;;;11.93;;
40284;SDS011;25997;50.214;19.354;2023-04-29T13:00:21;14.32;;;10.23;;
40284;SDS011;25997;50.214;19.354;2023-04-29T13:03:25;9.32;;;7.53;;
40284;SDS011;25997;50.214;19.354;2023-04-29T13:06:27;12.63;;;9.07;;
40284;SDS011;25997;50.214;19.354;2023-04-29T13:09:30;12.70;;;8.40;;
40284;SDS011;25997;50.214;19.354;2023-04-29T13:12:33;10.68;;;7.60;;
40284;SDS011;25997;50.214;19.354;2023-04-29T13:15:36;7.13;;;6.28;;
40284;SDS011;25997;50.214;19.354;2023-04-29T13:18:41;9.50;;;7.45;;
40284;SDS011;25997;50.214;19.354;2023-04-29T13:21:43;13.70;;;9.77;;
40284;SDS011;25997;50.214;19.354;2023-04-29T13:24:46;10.93;;;8.23;;
40284;SDS011;25997;50.214;19.354;2023-04-29T13:27:48;14.27;;;11.00;;
40284;SDS011;25997;50.214;19.354;2023-04-29T13:30:51;8.75;;;7.25;;
40284;SDS011;25997;50.214;19.354;2023-04-29T13:33:55;13.57;;;9.27;;
40284;SDS011;25997;50.214;19.354;2023-04-29T13:36:57;15.90;;;10.77;;
40284;SDS011;25997;50.214;19.354;2023-04-29T13:40:00;24.63;;;13.02;;
40284;SDS011;25997;50.214;19.354;2023-04-29T13:43:02;15.38;;;10.73;;
40284;SDS011;25997;50.214;19.354;2023-04-29T13:46:06;19.20;;;13.85;;
40284;SDS011;25997;50.214;19.354;2023-04-29T13:49:10;37.30;;;23.35;;
40284;SDS011;25997;50.214;19.354;2023-04-29T13:52:12;8.63;;;7.45;;
40284;SDS011;25997;50.214;19.354;2023-04-29T13:55:15;13.77;;;10.60;;
40284;SDS011;25997;50.214;19.354;2023-04-29T13:58:17;25.42;;;18.10;;
40284;SDS011;25997;50.214;19.354;2023-04-29T14:01:20;9.57;;;6.53;;
40284;SDS011;25997;50.214;19.354;2023-04-29T14:04:25;7.00;;;5.20;;
40284;SDS011;25997;50.214;19.354;2023-04-29T14:07:28;6.78;;;6.07;;
40284;SDS011;25997;50.214;19.354;2023-04-29T14:10:30;39.88;;;23.08;;
40284;SDS011;25997;50.214;19.354;2023-04-29T14:13:33;10.70;;;7.50;;
40284;SDS011;25997;50.214;19.354;2023-04-29T14:16:35;6.57;;;5.53;;
40284;SDS011;25997;50.214;19.354;2023-04-29T14:19:39;5.95;;;5.15;;
40284;SDS011;25997;50.214;19.354;2023-04-29T14:22:41;8.70;;;5.82;;
40284;SDS011;25997;50.214;19.354;2023-04-29T14:25:44;12.38;;;7.05;;
40284;SDS011;25997;50.214;19.354;2023-04-29T14:28:46;7.93;;;5.28;;
40284;SDS011;25997;50.214;19.354;2023-04-29T14:31:56;7.18;;;5.65;;
40284;SDS011;25997;50.214;19.354;2023-04-29T14:35:00;7.25;;;6.53;;
40284;SDS011;25997;50.214;19.354;2023-04-29T14:38:03;6.97;;;6.28;;
40284;SDS011;25997;50.214;19.354;2023-04-29T14:41:05;13.75;;;11.18;;
40284;SDS011;25997;50.214;19.354;2023-04-29T14:44:08;11.75;;;10.55;;
40284;SDS011;25997;50.214;19.354;2023-04-29T14:47:10;49.22;;;32.83;;
40284;SDS011;25997;50.214;19.354;2023-04-29T14:50:14;19.23;;;14.75;;
40284;SDS011;25997;50.214;19.354;2023-04-29T14:53:17;40.80;;;28.50;;
40284;SDS011;25997;50.214;19.354;2023-04-29T14:56:20;12.45;;;9.80;;
40284;SDS011;25997;50.214;19.354;2023-04-29T14:59:23;59.72;;;43.10;;
40284;SDS011;25997;50.214;19.354;2023-04-29T15:02:28;36.83;;;27.92;;
40284;SDS011;25997;50.214;19.354;2023-04-29T15:05:31;101.55;;;65.95;;
40284;SDS011;25997;50.214;19.354;2023-04-29T15:08:34;94.32;;;58.60;;
40284;SDS011;25997;50.214;19.354;2023-04-29T15:11:37;43.08;;;28.52;;
40284;SDS011;25997;50.214;19.354;2023-04-29T15:14:40;46.92;;;30.17;;
40284;SDS011;25997;50.214;19.354;2023-04-29T15:17:42;36.35;;;27.33;;
40284;SDS011;25997;50.214;19.354;2023-04-29T15:20:46;26.05;;;17.27;;
40284;SDS011;25997;50.214;19.354;2023-04-29T15:23:50;32.67;;;22.55;;
40284;SDS011;25997;50.214;19.354;2023-04-29T15:26:52;36.10;;;26.92;;
40284;SDS011;25997;50.214;19.354;2023-04-29T15:29:55;18.55;;;14.05;;
40284;SDS011;25997;50.214;19.354;2023-04-29T15:32:57;13.57;;;11.13;;
40284;SDS011;25997;50.214;19.354;2023-04-29T15:36:01;17.25;;;15.45;;
40284;SDS011;25997;50.214;19.354;2023-04-29T15:39:04;13.57;;;11.68;;
40284;SDS011;25997;50.214;19.354;2023-04-29T15:42:10;11.98;;;9.30;;
40284;SDS011;25997;50.214;19.354;2023-04-29T15:45:12;29.42;;;26.30;;
40284;SDS011;25997;50.214;19.354;2023-04-29T15:48:16;33.15;;;29.80;;
40284;SDS011;25997;50.214;19.354;2023-04-29T15:51:20;41.00;;;25.70;;
40284;SDS011;25997;50.214;19.354;2023-04-29T15:54:22;23.40;;;20.02;;
40284;SDS011;25997;50.214;19.354;2023-04-29T15:57:25;19.38;;;16.38;;
40284;SDS011;25997;50.214;19.354;2023-04-29T16:00:27;14.57;;;11.63;;
40284;SDS011;25997;50.214;19.354;2023-04-29T16:03:30;11.30;;;10.15;;
40284;SDS011;25997;50.214;19.354;2023-04-29T16:06:34;14.15;;;11.10;;
40284;SDS011;25997;50.214;19.354;2023-04-29T16:09:36;23.85;;;21.33;;
40284;SDS011;25997;50.214;19.354;2023-04-29T16:12:39;34.50;;;31.33;;
40284;SDS011;25997;50.214;19.354;2023-04-29T16:15:41;50.80;;;38.20;;
40284;SDS011;25997;50.214;19.354;2023-04-29T16:18:44;29.27;;;23.52;;
40284;SDS011;25997;50.214;19.354;2023-04-29T16:21:47;13.15;;;11.23;;
40284;SDS011;25997;50.214;19.354;2023-04-29T16:24:50;15.30;;;13.80;;
40284;SDS011;25997;50.214;19.354;2023-04-29T16:27:52;12.63;;;10.93;;
40284;SDS011;25997;50.214;19.354;2023-04-29T16:30:55;10.50;;;8.73;;
40284;SDS011;25997;50.214;19.354;2023-04-29T16:33:57;8.20;;;7.40;;
40284;SDS011;25997;50.214;19.354;2023-04-29T16:37:01;8.57;;;6.70;;
40284;SDS011;25997;50.214;19.354;2023-04-29T16:40:04;9.90;;;5.97;;
40284;SDS011;25997;50.214;19.354;2023-04-29T16:43:07;8.63;;;6.45;;
40284;SDS011;25997;50.214;19.354;2023-04-29T16:46:13;10.18;;;6.63;;
40284;SDS011;25997;50.214;19.354;2023-04-29T16:49:16;7.28;;;6.30;;
40284;SDS011;25997;50.214;19.354;2023-04-29T16:52:24;9.90;;;7.05;;
40284;SDS011;25997;50.214;19.354;2023-04-29T16:55:27;7.72;;;6.90;;
40284;SDS011;25997;50.214;19.354;2023-04-29T16:58:30;7.90;;;6.93;;
40284;SDS011;25997;50.214;19.354;2023-04-29T17:01:32;9.45;;;8.02;;
40284;SDS011;25997;50.214;19.354;2023-04-29T17:04:35;61.30;;;48.80;;
40284;SDS011;25997;50.214;19.354;2023-04-29T17:07:39;22.73;;;20.40;;
40284;SDS011;25997;50.214;19.354;2023-04-29T17:10:42;12.38;;;11.25;;
40284;SDS011;25997;50.214;19.354;2023-04-29T17:13:44;32.40;;;29.48;;
40284;SDS011;25997;50.214;19.354;2023-04-29T17:16:47;19.27;;;17.02;;
40284;SDS011;25997;50.214;19.354;2023-04-29T17:19:49;18.92;;;16.95;;
40284;SDS011;25997;50.214;19.354;2023-04-29T17:22:53;19.92;;;17.40;;
40284;SDS011;25997;50.214;19.354;2023-04-29T17:25:56;22.45;;;20.23;;
40284;SDS011;25997;50.214;19.354;2023-04-29T17:28:58;24.00;;;19.90;;
40284;SDS011;25997;50.214;19.354;2023-04-29T17:32:01;22.05;;;19.02;;
40284;SDS011;25997;50.214;19.354;2023-04-29T17:35:10;29.67;;;26.83;;
40284;SDS011;25997;50.214;19.354;2023-04-29T17:38:14;33.45;;;25.23;;
40284;SDS011;25997;50.214;19.354;2023-04-29T17:41:17;23.52;;;20.90;;
40284;SDS011;25997;50.214;19.354;2023-04-29T17:44:19;25.42;;;22.73;;
40284;SDS011;25997;50.214;19.354;2023-04-29T17:47:22;18.40;;;16.55;;
40284;SDS011;25997;50.214;19.354;2023-04-29T17:50:24;25.70;;;23.20;;
40284;SDS011;25997;50.214;19.354;2023-04-29T17:53:28;22.77;;;20.40;;
40284;SDS011;25997;50.214;19.354;2023-04-29T17:56:32;27.67;;;24.60;;